createdAt,value
2018-08-20T00:00:16.140Z,24.03
2018-08-20T00:01:16.039Z,23.98
2018-08-20T00:02:15.988Z,23.98
2018-08-20T00:03:15.932Z,23.90
2018-08-20T00:04:15.880Z,23.95
2018-08-20T00:05:15.870Z,23.98
2018-08-20T00:06:15.780Z,23.94
2018-08-20T00:07:15.725Z,24.00
2018-08-20T00:08:15.672Z,24.00
2018-08-20T00:09:15.625Z,23.97
2018-08-20T00:10:15.565Z,23.95
2018-08-20T00:11:15.539Z,23.98
2018-08-20T00:12:15.458Z,23.97
2018-08-20T00:13:15.409Z,23.94
2018-08-20T00:14:15.355Z,23.97
2018-08-20T00:15:15.304Z,24.02
2018-08-20T00:16:15.285Z,24.00
2018-08-20T00:17:15.208Z,23.97
2018-08-20T00:18:15.150Z,23.83
2018-08-20T00:19:15.101Z,23.87
2018-08-20T00:20:15.043Z,23.84
2018-08-20T00:21:15.020Z,23.88
2018-08-20T00:22:14.934Z,23.84
2018-08-20T00:23:14.879Z,23.79
2018-08-20T00:24:14.828Z,23.72
2018-08-20T00:25:14.773Z,23.76
2018-08-20T00:26:14.753Z,23.60
2018-08-20T00:27:14.675Z,23.60
2018-08-20T00:28:14.638Z,23.57
2018-08-20T00:29:14.578Z,23.55
2018-08-20T00:30:14.536Z,23.46
2018-08-20T00:31:14.513Z,23.39
2018-08-20T00:32:14.438Z,23.50
2018-08-20T00:33:14.392Z,23.46
2018-08-20T00:34:14.355Z,23.42
2018-08-20T00:35:14.309Z,23.48
2018-08-20T00:36:14.291Z,23.46
2018-08-20T00:37:14.215Z,23.33
2018-08-20T00:38:14.171Z,23.38
2018-08-20T00:39:14.128Z,23.36
2018-08-20T00:40:14.079Z,23.36
2018-08-20T00:41:14.062Z,23.32
2018-08-20T00:42:14.022Z,23.27
2018-08-20T00:43:13.942Z,23.25
2018-08-20T00:44:13.897Z,23.19
2018-08-20T00:45:13.851Z,23.25
2018-08-20T00:46:13.807Z,23.20
2018-08-20T00:47:13.830Z,23.25
2018-08-20T00:48:13.723Z,23.15
2018-08-20T00:49:13.679Z,23.22
2018-08-20T00:50:13.638Z,23.05
2018-08-20T00:51:13.599Z,23.12
2018-08-20T00:52:13.593Z,23.12
2018-08-20T00:53:13.522Z,23.04
2018-08-20T00:54:13.494Z,23.09
2018-08-20T00:55:13.438Z,23.22
2018-08-20T00:56:13.401Z,23.05
2018-08-20T00:57:13.410Z,23.07
2018-08-20T00:58:13.327Z,23.12
2018-08-20T00:59:13.283Z,23.09
2018-08-20T01:00:13.241Z,23.12
2018-08-20T01:01:13.202Z,23.13
2018-08-20T01:02:13.169Z,23.05
2018-08-20T01:03:13.161Z,22.95
2018-08-20T01:04:13.091Z,22.92
2018-08-20T01:05:13.062Z,22.83
2018-08-20T01:06:13.019Z,22.77
2018-08-20T01:07:12.990Z,22.73
2018-08-20T01:08:12.980Z,22.70
2018-08-20T01:09:12.923Z,22.58
2018-08-20T01:10:12.889Z,22.62
2018-08-20T01:11:12.852Z,22.54
2018-08-20T01:12:12.824Z,22.42
2018-08-20T01:13:12.817Z,22.45
2018-08-20T01:14:12.757Z,22.49
2018-08-20T01:15:12.734Z,22.47
2018-08-20T01:16:12.696Z,22.43
2018-08-20T01:17:12.669Z,22.45
2018-08-20T01:18:12.667Z,22.45
2018-08-20T01:19:12.602Z,22.49
2018-08-20T01:20:12.575Z,22.62
2018-08-20T01:21:12.535Z,22.52
2018-08-20T01:22:12.504Z,22.55
2018-08-20T01:23:12.508Z,22.61
2018-08-20T01:24:12.442Z,22.61
2018-08-20T01:25:12.420Z,22.55
2018-08-20T01:26:12.385Z,22.60
2018-08-20T01:27:12.345Z,22.68
2018-08-20T01:28:12.347Z,22.68
2018-08-20T01:29:12.277Z,22.73
2018-08-20T01:30:12.253Z,22.76
2018-08-20T01:31:12.215Z,22.70
2018-08-20T01:32:12.190Z,22.82
2018-08-20T01:33:12.193Z,22.80
2018-08-20T01:34:12.135Z,22.77
2018-08-20T01:35:12.092Z,22.80
2018-08-20T01:36:12.068Z,22.83
2018-08-20T01:37:12.065Z,22.80
2018-08-20T01:38:12.006Z,22.82
2018-08-20T01:39:12.008Z,22.77
2018-08-20T01:40:11.951Z,22.86
2018-08-20T01:41:11.919Z,22.83
2018-08-20T01:42:11.892Z,22.82
2018-08-20T01:43:11.856Z,22.79
2018-08-20T01:44:11.856Z,22.82
2018-08-20T01:45:11.810Z,22.77
2018-08-20T01:46:11.765Z,22.83
2018-08-20T01:47:11.739Z,22.70
2018-08-20T01:48:11.716Z,22.82
2018-08-20T01:49:11.710Z,22.88
2018-08-20T01:50:11.658Z,22.75
2018-08-20T01:51:11.637Z,22.80
2018-08-20T01:52:11.606Z,22.80
2018-08-20T01:53:11.579Z,22.68
2018-08-20T01:54:11.582Z,22.60
2018-08-20T01:55:11.524Z,22.55
2018-08-20T01:56:11.501Z,22.57
2018-08-20T01:57:11.476Z,22.45
2018-08-20T01:58:11.447Z,22.47
2018-08-20T01:59:11.418Z,22.36
2018-08-20T02:00:11.425Z,22.43
2018-08-20T02:01:11.366Z,22.40
2018-08-20T02:02:11.346Z,22.21
2018-08-20T02:03:11.319Z,22.33
2018-08-20T02:04:11.295Z,22.31
2018-08-20T02:05:11.302Z,22.17
2018-08-20T02:06:11.255Z,22.17
2018-08-20T02:07:11.237Z,22.02
2018-08-20T02:08:11.205Z,22.02
2018-08-20T02:09:11.183Z,21.99
2018-08-20T02:10:11.189Z,21.96
2018-08-20T02:11:11.166Z,21.90
2018-08-20T02:12:11.130Z,21.98
2018-08-20T02:13:11.115Z,21.99
2018-08-20T02:14:11.097Z,21.98
2018-08-20T02:15:11.107Z,21.96
2018-08-20T02:16:11.068Z,21.88
2018-08-20T02:17:11.054Z,21.92
2018-08-20T02:18:11.032Z,21.88
2018-08-20T02:19:11.014Z,21.79
2018-08-20T02:20:11.030Z,21.77
2018-08-20T02:21:10.987Z,21.79
2018-08-20T02:22:10.972Z,21.82
2018-08-20T02:23:10.960Z,21.75
2018-08-20T02:24:10.960Z,21.79
2018-08-20T02:25:10.938Z,21.79
2018-08-20T02:26:10.943Z,21.77
2018-08-20T02:27:10.896Z,21.86
2018-08-20T02:28:10.881Z,21.92
2018-08-20T02:29:10.864Z,21.91
2018-08-20T02:30:10.843Z,21.86
2018-08-20T02:31:10.869Z,21.96
2018-08-20T02:32:10.813Z,21.88
2018-08-20T02:33:10.795Z,21.90
2018-08-20T02:34:10.776Z,21.90
2018-08-20T02:35:10.759Z,21.94
2018-08-20T02:36:10.770Z,21.75
2018-08-20T02:37:10.736Z,21.80
2018-08-20T02:38:10.723Z,21.62
2018-08-20T02:39:10.697Z,21.59
2018-08-20T02:40:10.734Z,21.59
2018-08-20T02:41:10.700Z,21.64
2018-08-20T02:42:10.668Z,21.62
2018-08-20T02:43:10.650Z,21.59
2018-08-20T02:44:10.645Z,21.62
2018-08-20T02:45:10.629Z,21.67
2018-08-20T02:46:10.663Z,21.62
2018-08-20T02:47:10.613Z,21.67
2018-08-20T02:48:10.594Z,21.61
2018-08-20T02:49:10.588Z,21.61
2018-08-20T02:50:10.566Z,21.52
2018-08-20T02:51:10.554Z,21.50
2018-08-20T02:52:10.574Z,21.40
2018-08-20T02:53:10.528Z,21.38
2018-08-20T02:54:10.519Z,21.37
2018-08-20T02:55:10.505Z,21.28
2018-08-20T02:56:10.486Z,21.34
2018-08-20T02:57:10.506Z,21.38
2018-08-20T02:58:10.477Z,21.31
2018-08-20T02:59:10.449Z,21.38
2018-08-20T03:00:10.449Z,21.28
2018-08-20T03:01:10.445Z,21.34
2018-08-20T03:02:10.546Z,21.37
2018-08-20T03:03:10.411Z,21.32
2018-08-20T03:04:10.393Z,21.34
2018-08-20T03:05:10.384Z,21.32
2018-08-20T03:06:10.364Z,21.32
2018-08-20T03:07:10.380Z,21.21
2018-08-20T03:08:10.350Z,21.27
2018-08-20T03:09:10.348Z,21.25
2018-08-20T03:10:10.337Z,21.29
2018-08-20T03:11:10.325Z,21.25
2018-08-20T03:12:10.343Z,21.19
2018-08-20T03:13:10.304Z,21.19
2018-08-20T03:14:10.299Z,21.09
2018-08-20T03:15:10.288Z,21.10
2018-08-20T03:16:10.300Z,21.07
2018-08-20T03:17:10.299Z,21.13
2018-08-20T03:18:10.261Z,21.07
2018-08-20T03:19:10.246Z,20.98
2018-08-20T03:20:10.247Z,20.98
2018-08-20T03:21:10.242Z,21.01
2018-08-20T03:22:10.262Z,21.03
2018-08-20T03:23:10.230Z,20.99
2018-08-20T03:24:10.226Z,20.97
2018-08-20T03:25:10.221Z,21.06
2018-08-20T03:26:10.218Z,20.99
2018-08-20T03:27:10.244Z,20.97
2018-08-20T03:28:10.204Z,20.92
2018-08-20T03:29:10.198Z,21.03
2018-08-20T03:30:10.200Z,20.97
2018-08-20T03:31:10.193Z,20.92
2018-08-20T03:32:10.186Z,20.99
2018-08-20T03:33:10.209Z,20.99
2018-08-20T03:34:10.175Z,21.01
2018-08-20T03:35:10.174Z,21.07
2018-08-20T03:36:10.168Z,21.06
2018-08-20T03:37:10.168Z,21.07
2018-08-20T03:38:10.196Z,20.94
2018-08-20T03:39:10.160Z,20.99
2018-08-20T03:40:10.154Z,20.89
2018-08-20T03:41:10.143Z,20.84
2018-08-20T03:42:10.139Z,20.84
2018-08-20T03:43:10.180Z,20.77
2018-08-20T03:44:10.128Z,20.73
2018-08-20T03:45:10.121Z,20.76
2018-08-20T03:46:10.115Z,20.72
2018-08-20T03:47:10.113Z,20.64
2018-08-20T03:48:10.110Z,20.57
2018-08-20T03:49:10.131Z,20.54
2018-08-20T03:50:10.102Z,20.57
2018-08-20T03:51:10.101Z,20.43
2018-08-20T03:52:10.095Z,20.51
2018-08-20T03:53:10.089Z,20.42
2018-08-20T03:54:10.113Z,20.38
2018-08-20T03:55:10.085Z,20.35
2018-08-20T03:56:10.130Z,20.32
2018-08-20T03:57:10.084Z,20.24
2018-08-20T03:58:10.087Z,20.17
2018-08-20T03:59:10.113Z,20.17
2018-08-20T04:00:10.087Z,20.18
2018-08-20T04:01:10.089Z,20.21
2018-08-20T04:02:10.092Z,20.17
2018-08-20T04:03:10.095Z,20.18
2018-08-20T04:04:10.128Z,20.26
2018-08-20T04:05:10.106Z,20.23
2018-08-20T04:06:10.105Z,20.33
2018-08-20T04:07:10.112Z,20.38
2018-08-20T04:08:10.113Z,20.36
2018-08-20T04:09:10.144Z,20.26
2018-08-20T04:10:10.124Z,20.33
2018-08-20T04:11:10.132Z,20.32
2018-08-20T04:12:10.143Z,20.38
2018-08-20T04:13:10.143Z,20.28
2018-08-20T04:14:10.178Z,20.28
2018-08-20T04:15:10.149Z,20.18
2018-08-20T04:16:10.153Z,20.29
2018-08-20T04:17:10.158Z,20.20
2018-08-20T04:18:10.160Z,20.17
2018-08-20T04:19:10.202Z,20.24
2018-08-20T04:20:10.178Z,20.21
2018-08-20T04:21:10.177Z,20.21
2018-08-20T04:22:10.180Z,20.24
2018-08-20T04:23:10.189Z,20.18
2018-08-20T04:24:10.208Z,20.18
2018-08-20T04:25:10.191Z,20.13
2018-08-20T04:26:10.192Z,20.11
2018-08-20T04:27:10.200Z,20.16
2018-08-20T04:28:10.204Z,20.14
2018-08-20T04:29:10.250Z,20.17
2018-08-20T04:30:10.212Z,20.13
2018-08-20T04:31:10.216Z,20.20
2018-08-20T04:32:10.220Z,20.17
2018-08-20T04:33:10.240Z,20.21
2018-08-20T04:34:10.220Z,20.29
2018-08-20T04:35:10.250Z,20.21
2018-08-20T04:36:10.224Z,20.16
2018-08-20T04:37:10.232Z,20.18
2018-08-20T04:38:10.238Z,20.28
2018-08-20T04:39:10.244Z,20.18
2018-08-20T04:40:10.288Z,20.17
2018-08-20T04:41:10.260Z,20.28
2018-08-20T04:42:10.351Z,20.21
2018-08-20T04:43:10.272Z,20.28
2018-08-20T04:44:10.278Z,20.28
2018-08-20T04:45:10.334Z,20.31
2018-08-20T04:46:10.292Z,20.35
2018-08-20T04:47:10.314Z,20.38
2018-08-20T04:48:10.305Z,20.39
2018-08-20T04:49:10.315Z,20.50
2018-08-20T04:50:10.533Z,20.39
2018-08-20T04:51:10.531Z,20.43
2018-08-20T04:52:10.327Z,20.54
2018-08-20T04:53:10.330Z,20.54
2018-08-20T04:54:10.331Z,20.57
2018-08-20T04:55:10.334Z,20.59
2018-08-20T04:56:10.370Z,20.61
2018-08-20T04:57:10.352Z,20.69
2018-08-20T04:58:10.358Z,20.76
2018-08-20T04:59:10.353Z,20.74
2018-08-20T05:00:10.353Z,20.73
2018-08-20T05:01:10.385Z,20.76
2018-08-20T05:02:10.368Z,20.77
2018-08-20T05:03:10.365Z,20.72
2018-08-20T05:04:10.362Z,20.80
2018-08-20T05:05:10.367Z,20.76
2018-08-20T05:06:10.410Z,20.72
2018-08-20T05:07:10.347Z,20.72
2018-08-20T05:08:10.343Z,20.72
2018-08-20T05:09:10.340Z,20.73
2018-08-20T05:10:10.467Z,20.67
2018-08-20T05:11:10.355Z,20.62
2018-08-20T05:12:10.329Z,20.72
2018-08-20T05:13:10.323Z,20.76
2018-08-20T05:14:10.321Z,20.79
2018-08-20T05:15:10.316Z,20.77
2018-08-20T05:16:10.348Z,20.80
2018-08-20T05:17:10.311Z,20.88
2018-08-20T05:18:10.308Z,20.91
2018-08-20T05:19:10.303Z,20.95
2018-08-20T05:20:10.292Z,21.03
2018-08-20T05:21:10.317Z,21.07
2018-08-20T05:22:10.284Z,21.03
2018-08-20T05:23:10.273Z,21.06
2018-08-20T05:24:10.265Z,21.09
2018-08-20T05:25:10.260Z,21.03
2018-08-20T05:26:10.256Z,21.01
2018-08-20T05:27:10.278Z,21.09
2018-08-20T05:28:10.246Z,21.07
2018-08-20T05:29:10.240Z,21.17
2018-08-20T05:30:10.235Z,21.13
2018-08-20T05:31:10.234Z,21.16
2018-08-20T05:32:10.239Z,21.32
2018-08-20T05:33:10.205Z,21.16
2018-08-20T05:34:10.198Z,21.12
2018-08-20T05:35:10.189Z,21.27
2018-08-20T05:36:10.181Z,21.24
2018-08-20T05:37:10.217Z,21.24
2018-08-20T05:38:10.170Z,21.28
2018-08-20T05:39:10.162Z,21.28
2018-08-20T05:40:10.152Z,21.37
2018-08-20T05:41:10.145Z,21.43
2018-08-20T05:42:10.136Z,21.37
2018-08-20T05:43:10.152Z,21.34
2018-08-20T05:44:10.123Z,21.43
2018-08-20T05:45:10.104Z,21.46
2018-08-20T05:46:10.092Z,21.47
2018-08-20T05:47:10.073Z,21.52
2018-08-20T05:48:10.089Z,21.61
2018-08-20T05:49:10.058Z,21.54
2018-08-20T05:50:10.026Z,21.53
2018-08-20T05:51:10.012Z,21.58
2018-08-20T05:52:09.999Z,21.58
2018-08-20T05:53:10.002Z,21.59
2018-08-20T05:54:09.958Z,21.69
2018-08-20T05:55:09.940Z,21.59
2018-08-20T05:56:09.925Z,21.58
2018-08-20T05:57:09.913Z,21.52
2018-08-20T05:58:09.938Z,21.52
2018-08-20T05:59:09.901Z,21.49
2018-08-20T06:00:09.885Z,21.54
2018-08-20T06:01:09.861Z,21.46
2018-08-20T06:02:09.847Z,21.32
2018-08-20T06:03:09.857Z,21.29
2018-08-20T06:04:09.825Z,21.37
2018-08-20T06:05:09.813Z,21.34
2018-08-20T06:06:09.797Z,21.29
2018-08-20T06:07:09.782Z,21.28
2018-08-20T06:08:09.810Z,21.25
2018-08-20T06:09:09.749Z,21.31
2018-08-20T06:10:09.770Z,21.34
2018-08-20T06:11:09.721Z,21.31
2018-08-20T06:12:09.705Z,21.24
2018-08-20T06:13:09.689Z,21.27
2018-08-20T06:14:09.705Z,21.31
2018-08-20T06:15:09.732Z,21.32
2018-08-20T06:16:09.641Z,21.32
2018-08-20T06:17:09.630Z,21.32
2018-08-20T06:18:09.613Z,21.35
2018-08-20T06:19:09.627Z,21.37
2018-08-20T06:20:09.585Z,21.34
2018-08-20T06:21:09.567Z,21.35
2018-08-20T06:22:09.552Z,21.24
2018-08-20T06:23:09.534Z,21.29
2018-08-20T06:24:09.543Z,21.27
2018-08-20T06:25:09.574Z,21.32
2018-08-20T06:26:09.488Z,21.34
2018-08-20T06:27:09.469Z,21.29
2018-08-20T06:28:09.454Z,21.38
2018-08-20T06:29:09.464Z,21.47
2018-08-20T06:30:09.425Z,21.49
2018-08-20T06:31:09.405Z,21.47
2018-08-20T06:32:09.387Z,21.52
2018-08-20T06:33:09.373Z,21.61
2018-08-20T06:34:09.376Z,21.59
2018-08-20T06:35:09.334Z,21.65
2018-08-20T06:36:09.312Z,21.64
2018-08-20T06:37:09.291Z,21.65
2018-08-20T06:38:09.273Z,21.77
2018-08-20T06:39:09.273Z,21.75
2018-08-20T06:40:09.231Z,21.83
2018-08-20T06:41:09.202Z,21.91
2018-08-20T06:42:09.181Z,21.84
2018-08-20T06:43:09.160Z,22.00
2018-08-20T06:44:09.186Z,21.92
2018-08-20T06:45:09.120Z,21.94
2018-08-20T06:46:09.102Z,22.00
2018-08-20T06:47:09.080Z,21.99
2018-08-20T06:48:09.067Z,22.00
2018-08-20T06:49:09.040Z,21.98
2018-08-20T06:50:09.037Z,21.98
2018-08-20T06:51:08.983Z,22.03
2018-08-20T06:52:08.955Z,22.03
2018-08-20T06:53:08.931Z,22.06
2018-08-20T06:54:08.907Z,22.05
2018-08-20T06:55:08.905Z,21.92
2018-08-20T06:56:08.855Z,21.88
2018-08-20T06:57:08.832Z,21.94
2018-08-20T06:58:08.813Z,21.91
2018-08-20T06:59:08.799Z,21.84
2018-08-20T07:00:08.811Z,21.91
2018-08-20T07:01:08.756Z,21.98
2018-08-20T07:02:08.741Z,21.99
2018-08-20T07:03:08.729Z,22.05
2018-08-20T07:04:08.710Z,21.98
2018-08-20T07:05:08.715Z,21.99
2018-08-20T07:06:08.670Z,22.03
2018-08-20T07:07:08.652Z,22.05
2018-08-20T07:08:08.627Z,22.05
2018-08-20T07:09:08.609Z,22.07
2018-08-20T07:10:08.620Z,22.06
2018-08-20T07:11:08.559Z,22.21
2018-08-20T07:12:08.539Z,22.21
2018-08-20T07:13:08.526Z,22.15
2018-08-20T07:14:08.491Z,22.14
2018-08-20T07:15:08.481Z,22.30
2018-08-20T07:16:08.475Z,22.18
2018-08-20T07:17:08.476Z,22.20
2018-08-20T07:18:08.400Z,22.20
2018-08-20T07:19:08.377Z,22.15
2018-08-20T07:20:08.357Z,22.18
2018-08-20T07:21:08.354Z,22.14
2018-08-20T07:22:08.306Z,22.24
2018-08-20T07:23:08.338Z,22.36
2018-08-20T07:24:08.268Z,22.27
2018-08-20T07:25:08.241Z,22.27
2018-08-20T07:26:08.250Z,22.24
2018-08-20T07:27:08.198Z,22.33
2018-08-20T07:28:08.176Z,22.42
2018-08-20T07:29:08.151Z,22.45
2018-08-20T07:30:08.130Z,22.36
2018-08-20T07:31:08.133Z,22.45
2018-08-20T07:32:08.079Z,22.46
2018-08-20T07:33:08.057Z,22.47
2018-08-20T07:34:08.033Z,22.58
2018-08-20T07:35:08.012Z,22.58
2018-08-20T07:36:08.009Z,22.58
2018-08-20T07:37:07.959Z,22.67
2018-08-20T07:38:07.934Z,22.70
2018-08-20T07:39:07.910Z,22.70
2018-08-20T07:40:07.889Z,22.73
2018-08-20T07:41:07.882Z,22.77
2018-08-20T07:42:07.825Z,22.80
2018-08-20T07:43:07.798Z,22.79
2018-08-20T07:44:07.767Z,22.82
2018-08-20T07:45:07.735Z,22.83
2018-08-20T07:46:07.710Z,22.79
2018-08-20T07:47:07.711Z,22.80
2018-08-20T07:48:07.644Z,22.79
2018-08-20T07:49:07.612Z,22.83
2018-08-20T07:50:07.576Z,22.83
2018-08-20T07:51:07.544Z,22.85
2018-08-20T07:52:07.538Z,22.79
2018-08-20T07:53:07.479Z,22.90
2018-08-20T07:54:07.454Z,22.92
2018-08-20T07:55:07.413Z,22.91
2018-08-20T07:56:07.379Z,22.95
2018-08-20T07:57:07.371Z,22.94
2018-08-20T07:58:07.310Z,23.00
2018-08-20T07:59:07.284Z,22.97
2018-08-20T08:00:07.244Z,23.13
2018-08-20T08:01:07.211Z,23.09
2018-08-20T08:02:07.209Z,23.01
2018-08-20T08:03:07.149Z,23.04
2018-08-20T08:04:07.121Z,23.09
2018-08-20T08:05:07.080Z,23.16
2018-08-20T08:06:07.052Z,23.13
2018-08-20T08:07:07.037Z,23.05
2018-08-20T08:08:06.974Z,23.09
2018-08-20T08:09:06.941Z,23.15
2018-08-20T08:10:06.899Z,23.10
2018-08-20T08:11:06.866Z,23.22
2018-08-20T08:12:06.848Z,23.33
2018-08-20T08:13:06.786Z,23.27
2018-08-20T08:14:06.770Z,23.35
2018-08-20T08:15:06.708Z,23.39
2018-08-20T08:16:06.678Z,23.31
2018-08-20T08:17:06.653Z,23.36
2018-08-20T08:18:06.593Z,23.39
2018-08-20T08:19:06.553Z,23.47
2018-08-20T08:20:06.517Z,23.40
2018-08-20T08:21:06.487Z,23.55
2018-08-20T08:22:06.472Z,23.55
2018-08-20T08:23:06.407Z,23.65
2018-08-20T08:24:06.402Z,23.65
2018-08-20T08:25:06.337Z,23.69
2018-08-20T08:26:06.290Z,23.69
2018-08-20T08:27:06.270Z,23.72
2018-08-20T08:28:06.201Z,23.70
2018-08-20T08:29:06.163Z,23.73
2018-08-20T08:30:06.114Z,23.68
2018-08-20T08:31:06.074Z,23.78
2018-08-20T08:32:06.056Z,23.79
2018-08-20T08:33:05.990Z,23.78
2018-08-20T08:34:05.940Z,23.84
2018-08-20T08:35:05.894Z,23.80
2018-08-20T08:36:05.883Z,23.87
2018-08-20T08:37:05.993Z,23.80
2018-08-20T08:38:05.890Z,23.85
2018-08-20T08:39:05.696Z,23.87
2018-08-20T08:40:05.648Z,23.88
2018-08-20T08:41:05.595Z,23.93
2018-08-20T08:42:05.547Z,23.98
2018-08-20T08:43:05.526Z,23.97
2018-08-20T08:44:05.452Z,24.06
2018-08-20T08:45:05.404Z,24.00
2018-08-20T08:46:05.357Z,24.13
2018-08-20T08:47:05.310Z,24.10
2018-08-20T08:48:05.288Z,24.12
2018-08-20T08:49:05.213Z,24.24
2018-08-20T08:50:05.162Z,24.24
2018-08-20T08:51:05.111Z,24.45
2018-08-20T08:52:05.057Z,24.42
2018-08-20T08:53:05.051Z,24.45
2018-08-20T08:54:04.956Z,24.43
2018-08-20T08:55:04.899Z,24.52
2018-08-20T08:56:04.846Z,24.55
2018-08-20T08:57:04.793Z,24.61
2018-08-20T08:58:04.742Z,24.67
2018-08-20T08:59:04.713Z,24.65
2018-08-20T09:00:04.638Z,24.69
2018-08-20T09:01:04.582Z,24.71
2018-08-20T09:02:04.533Z,24.73
2018-08-20T09:03:04.473Z,24.76
2018-08-20T09:04:04.451Z,24.84
2018-08-20T09:05:04.364Z,24.67
2018-08-20T09:06:04.308Z,24.77
2018-08-20T09:07:04.255Z,24.73
2018-08-20T09:08:04.193Z,24.76
2018-08-20T09:09:04.164Z,24.78
2018-08-20T09:10:04.089Z,24.73
2018-08-20T09:11:04.032Z,24.77
2018-08-20T09:12:03.972Z,24.71
2018-08-20T09:13:03.917Z,24.80
2018-08-20T09:14:03.901Z,24.85
2018-08-20T09:15:03.797Z,24.85
2018-08-20T09:16:03.738Z,24.95
2018-08-20T09:17:03.676Z,24.96
2018-08-20T09:18:03.616Z,24.95
2018-08-20T09:19:03.556Z,25.02
2018-08-20T09:20:03.528Z,24.98
2018-08-20T09:21:03.434Z,25.06
2018-08-20T09:22:03.372Z,25.03
2018-08-20T09:23:03.306Z,25.10
2018-08-20T09:24:03.242Z,25.09
2018-08-20T09:25:03.253Z,25.13
2018-08-20T09:26:03.114Z,25.21
2018-08-20T09:27:03.049Z,25.20
2018-08-20T09:28:02.998Z,25.17
2018-08-20T09:29:02.931Z,25.15
2018-08-20T09:30:02.892Z,25.25
2018-08-20T09:31:02.808Z,25.32
2018-08-20T09:32:02.738Z,25.38
2018-08-20T09:33:02.666Z,25.35
2018-08-20T09:34:02.599Z,25.42
2018-08-20T09:35:02.559Z,25.54
2018-08-20T09:36:02.462Z,25.43
2018-08-20T09:37:02.401Z,25.42
2018-08-20T09:38:02.351Z,25.46
2018-08-20T09:39:02.273Z,25.54
2018-08-20T09:40:02.246Z,25.58
2018-08-20T09:41:02.124Z,25.58
2018-08-20T09:42:02.050Z,25.61
2018-08-20T09:43:01.976Z,25.61
2018-08-20T09:44:01.906Z,25.67
2018-08-20T09:45:01.864Z,25.79
2018-08-20T09:46:01.760Z,25.70
2018-08-20T09:47:01.689Z,25.73
2018-08-20T09:48:01.617Z,25.76
2018-08-20T09:49:01.539Z,25.73
2018-08-20T09:50:01.510Z,25.77
2018-08-20T09:51:01.389Z,25.75
2018-08-20T09:52:01.323Z,25.73
2018-08-20T09:53:01.241Z,25.76
2018-08-20T09:54:01.169Z,25.72
2018-08-20T09:55:01.115Z,25.76
2018-08-20T09:56:01.020Z,25.80
2018-08-20T09:57:00.951Z,25.75
2018-08-20T09:58:00.872Z,25.72
2018-08-20T09:59:00.805Z,25.79
2018-08-20T10:00:00.771Z,25.87
2018-08-20T10:01:00.652Z,25.90
2018-08-20T10:02:00.582Z,25.87
2018-08-20T10:03:00.510Z,25.90
2018-08-20T10:04:00.438Z,25.92
2018-08-20T10:05:00.365Z,25.92
2018-08-20T10:06:00.328Z,26.01
2018-08-20T10:07:00.215Z,25.95
2018-08-20T10:08:00.141Z,26.01
2018-08-20T10:09:00.067Z,26.01
2018-08-20T10:10:00.048Z,26.05
2018-08-20T10:10:59.944Z,26.10
2018-08-20T10:11:59.861Z,26.09
2018-08-20T10:12:59.770Z,26.17
2018-08-20T10:13:59.711Z,26.18
2018-08-20T10:14:59.635Z,26.23
2018-08-20T10:15:59.573Z,26.21
2018-08-20T10:16:59.474Z,26.21
2018-08-20T10:17:59.387Z,26.28
2018-08-20T10:18:59.318Z,26.36
2018-08-20T10:19:59.244Z,26.30
2018-08-20T10:20:59.212Z,26.33
2018-08-20T10:21:59.096Z,26.29
2018-08-20T10:22:59.026Z,26.28
2018-08-20T10:23:58.939Z,26.33
2018-08-20T10:24:58.860Z,26.39
2018-08-20T10:25:58.780Z,26.45
2018-08-20T10:26:58.732Z,26.45
2018-08-20T10:27:58.621Z,26.48
2018-08-20T10:28:58.540Z,26.45
2018-08-20T10:29:58.468Z,26.45
2018-08-20T10:30:58.381Z,26.48
2018-08-20T10:31:58.380Z,26.50
2018-08-20T10:32:58.231Z,26.47
2018-08-20T10:33:58.150Z,26.50
2018-08-20T10:34:58.074Z,26.57
2018-08-20T10:35:57.974Z,26.51
2018-08-20T10:36:57.965Z,26.57
2018-08-20T10:37:57.937Z,26.60
2018-08-20T10:38:57.771Z,26.63
2018-08-20T10:39:57.686Z,26.65
2018-08-20T10:40:57.586Z,26.76
2018-08-20T10:41:57.518Z,26.72
2018-08-20T10:42:57.417Z,26.76
2018-08-20T10:43:57.320Z,26.76
2018-08-20T10:44:57.318Z,26.85
2018-08-20T10:45:57.206Z,26.87
2018-08-20T10:46:57.235Z,26.95
2018-08-20T10:47:57.036Z,26.94
2018-08-20T10:48:56.900Z,26.89
2018-08-20T10:49:56.827Z,27.02
2018-08-20T10:50:56.739Z,27.00
2018-08-20T10:51:56.627Z,27.00
2018-08-20T10:52:56.583Z,27.09
2018-08-20T10:53:56.446Z,27.22
2018-08-20T10:54:56.361Z,27.12
2018-08-20T10:55:56.271Z,27.24
2018-08-20T10:56:56.165Z,27.32
2018-08-20T10:57:56.103Z,27.36
2018-08-20T10:58:55.977Z,27.39
2018-08-20T10:59:55.885Z,27.44
2018-08-20T11:00:55.795Z,27.51
2018-08-20T11:01:55.729Z,27.51
2018-08-20T11:02:55.616Z,27.63
2018-08-20T11:03:55.505Z,27.66
2018-08-20T11:04:55.394Z,27.60
2018-08-20T11:05:55.302Z,27.63
2018-08-20T11:06:55.198Z,27.70
2018-08-20T11:07:55.121Z,27.66
2018-08-20T11:08:54.992Z,27.66
2018-08-20T11:09:54.937Z,27.79
2018-08-20T11:10:54.879Z,27.75
2018-08-20T11:11:54.687Z,27.75
2018-08-20T11:12:54.614Z,27.62
2018-08-20T11:13:54.501Z,27.72
2018-08-20T11:14:54.376Z,27.63
2018-08-20T11:15:54.284Z,27.63
2018-08-20T11:16:54.192Z,27.67
2018-08-20T11:17:54.115Z,27.63
2018-08-20T11:18:54.012Z,27.65
2018-08-20T11:19:53.883Z,27.70
2018-08-20T11:20:53.780Z,27.65
2018-08-20T11:21:53.678Z,27.65
2018-08-20T11:22:53.600Z,27.62
2018-08-20T11:23:53.476Z,27.67
2018-08-20T11:24:53.403Z,27.70
2018-08-20T11:25:53.260Z,27.74
2018-08-20T11:26:53.206Z,27.77
2018-08-20T11:27:53.087Z,27.78
2018-08-20T11:28:52.954Z,27.75
2018-08-20T11:29:52.866Z,27.79
2018-08-20T11:30:52.741Z,27.79
2018-08-20T11:31:52.640Z,27.74
2018-08-20T11:32:52.534Z,27.77
2018-08-20T11:33:52.456Z,27.78
2018-08-20T11:34:52.343Z,27.78
2018-08-20T11:35:52.216Z,27.77
2018-08-20T11:36:52.107Z,27.77
2018-08-20T11:37:52.021Z,27.70
2018-08-20T11:38:51.927Z,27.77
2018-08-20T11:39:51.813Z,27.72
2018-08-20T11:40:51.694Z,27.63
2018-08-20T11:41:51.593Z,27.67
2018-08-20T11:42:51.514Z,27.74
2018-08-20T11:43:51.421Z,27.67
2018-08-20T11:44:51.279Z,27.72
2018-08-20T11:45:51.179Z,27.72
2018-08-20T11:46:51.080Z,27.77
2018-08-20T11:47:50.969Z,27.70
2018-08-20T11:48:50.867Z,27.79
2018-08-20T11:49:50.832Z,27.77
2018-08-20T11:50:50.653Z,27.90
2018-08-20T11:51:50.559Z,27.84
2018-08-20T11:52:50.442Z,27.79
2018-08-20T11:53:50.388Z,27.85
2018-08-20T11:54:51.269Z,27.85
2018-08-20T11:55:50.132Z,27.84
2018-08-20T11:56:50.028Z,27.96
2018-08-20T11:57:49.928Z,27.87
2018-08-20T11:58:49.811Z,27.88
2018-08-20T11:59:49.741Z,27.87
2018-08-20T12:00:49.589Z,27.92
2018-08-20T12:01:49.516Z,27.97
2018-08-20T12:02:49.366Z,28.02
2018-08-20T12:03:49.257Z,28.02
2018-08-20T12:04:49.171Z,28.00
2018-08-20T12:05:49.032Z,28.03
2018-08-20T12:06:48.966Z,28.00
2018-08-20T12:07:48.871Z,28.02
2018-08-20T12:08:48.696Z,27.97
2018-08-20T12:09:48.618Z,28.00
2018-08-20T12:10:48.473Z,27.96
2018-08-20T12:11:48.363Z,28.02
2018-08-20T12:12:48.251Z,27.96
2018-08-20T12:13:48.136Z,27.93
2018-08-20T12:14:48.021Z,27.90
2018-08-20T12:15:47.935Z,27.94
2018-08-20T12:16:47.800Z,27.88
2018-08-20T12:17:47.691Z,27.88
2018-08-20T12:18:47.578Z,27.97
2018-08-20T12:19:47.467Z,27.93
2018-08-20T12:20:47.377Z,27.97
2018-08-20T12:21:47.242Z,27.94
2018-08-20T12:22:47.134Z,27.99
2018-08-20T12:23:47.028Z,27.92
2018-08-20T12:24:46.909Z,27.90
2018-08-20T12:25:46.851Z,27.97
2018-08-20T12:26:46.684Z,27.81
2018-08-20T12:27:46.575Z,27.97
2018-08-20T12:28:46.459Z,27.94
2018-08-20T12:29:46.344Z,27.96
2018-08-20T12:30:46.271Z,27.97
2018-08-20T12:31:46.150Z,27.87
2018-08-20T12:32:46.018Z,27.97
2018-08-20T12:33:45.911Z,27.97
2018-08-20T12:34:45.800Z,27.94
2018-08-20T12:35:45.689Z,28.02
2018-08-20T12:36:45.600Z,27.97
2018-08-20T12:37:45.462Z,28.00
2018-08-20T12:38:45.353Z,28.02
2018-08-20T12:39:45.301Z,28.02
2018-08-20T12:40:45.145Z,28.02
2018-08-20T12:41:45.061Z,27.99
2018-08-20T12:42:44.927Z,28.00
2018-08-20T12:43:44.826Z,28.02
2018-08-20T12:44:44.707Z,28.06
2018-08-20T12:45:44.600Z,27.97
2018-08-20T12:46:44.516Z,28.09
2018-08-20T12:47:44.379Z,28.11
2018-08-20T12:48:44.266Z,28.09
2018-08-20T12:49:44.162Z,28.09
2018-08-20T12:50:44.042Z,28.14
2018-08-20T12:51:43.959Z,28.12